sensor_id;sensor_type;location;lat;lon;timestamp;temperature;humidity
6106;DHT22;3083;51.508;7.966;2022-09-23T00:01:59;8.50;99.90
6106;DHT22;3083;51.508;7.966;2022-09-23T00:04:26;8.50;99.90
6106;DHT22;3083;51.508;7.966;2022-09-23T00:06:54;8.50;99.90
6106;DHT22;3083;51.508;7.966;2022-09-23T00:09:21;8.50;99.90
6106;DHT22;3083;51.508;7.966;2022-09-23T00:11:48;8.60;99.90
6106;DHT22;3083;51.508;7.966;2022-09-23T00:14:15;8.60;99.90
6106;DHT22;3083;51.508;7.966;2022-09-23T00:16:43;8.60;99.90
6106;DHT22;3083;51.508;7.966;2022-09-23T00:19:11;8.60;99.90
6106;DHT22;3083;51.508;7.966;2022-09-23T00:21:38;8.60;99.90
6106;DHT22;3083;51.508;7.966;2022-09-23T00:24:05;8.50;99.90
6106;DHT22;3083;51.508;7.966;2022-09-23T00:26:33;8.50;99.90
6106;DHT22;3083;51.508;7.966;2022-09-23T00:29:00;8.50;99.90
6106;DHT22;3083;51.508;7.966;2022-09-23T00:31:27;8.50;99.90
6106;DHT22;3083;51.508;7.966;2022-09-23T00:33:55;8.50;99.90
6106;DHT22;3083;51.508;7.966;2022-09-23T00:36:24;8.50;99.90
6106;DHT22;3083;51.508;7.966;2022-09-23T00:38:52;8.50;99.90
6106;DHT22;3083;51.508;7.966;2022-09-23T00:41:19;8.50;99.90
6106;DHT22;3083;51.508;7.966;2022-09-23T00:43:49;8.50;99.90
6106;DHT22;3083;51.508;7.966;2022-09-23T00:46:20;8.50;99.90
6106;DHT22;3083;51.508;7.966;2022-09-23T00:48:50;8.50;99.90
6106;DHT22;3083;51.508;7.966;2022-09-23T00:51:23;8.40;99.90
6106;DHT22;3083;51.508;7.966;2022-09-23T00:53:51;8.30;99.90
6106;DHT22;3083;51.508;7.966;2022-09-23T00:56:19;8.30;99.90
6106;DHT22;3083;51.508;7.966;2022-09-23T00:58:48;8.30;99.90
6106;DHT22;3083;51.508;7.966;2022-09-23T01:01:15;8.30;99.90
6106;DHT22;3083;51.508;7.966;2022-09-23T01:03:44;8.30;99.90
6106;DHT22;3083;51.508;7.966;2022-09-23T01:06:12;8.30;99.90
6106;DHT22;3083;51.508;7.966;2022-09-23T01:08:42;8.30;99.90
6106;DHT22;3083;51.508;7.966;2022-09-23T01:14:10;8.30;99.90
6106;DHT22;3083;51.508;7.966;2022-09-23T01:16:44;8.30;99.90
6106;DHT22;3083;51.508;7.966;2022-09-23T01:19:33;8.30;99.90
6106;DHT22;3083;51.508;7.966;2022-09-23T01:22:05;8.30;99.90
6106;DHT22;3083;51.508;7.966;2022-09-23T01:24:51;8.30;99.90
6106;DHT22;3083;51.508;7.966;2022-09-23T01:27:46;8.30;99.90
6106;DHT22;3083;51.508;7.966;2022-09-23T01:33:17;8.30;99.90
6106;DHT22;3083;51.508;7.966;2022-09-23T01:36:03;8.20;99.90
6106;DHT22;3083;51.508;7.966;2022-09-23T01:38:38;8.20;99.90
6106;DHT22;3083;51.508;7.966;2022-09-23T01:41:14;8.20;99.90
6106;DHT22;3083;51.508;7.966;2022-09-23T01:43:52;8.20;99.90
6106;DHT22;3083;51.508;7.966;2022-09-23T01:46:25;8.10;99.90
6106;DHT22;3083;51.508;7.966;2022-09-23T01:48:58;8.20;99.90
6106;DHT22;3083;51.508;7.966;2022-09-23T01:51:31;8.20;99.90
6106;DHT22;3083;51.508;7.966;2022-09-23T01:54:03;8.20;99.90
6106;DHT22;3083;51.508;7.966;2022-09-23T01:56:34;8.20;99.90
6106;DHT22;3083;51.508;7.966;2022-09-23T01:59:09;8.20;99.90
6106;DHT22;3083;51.508;7.966;2022-09-23T02:01:43;8.20;99.90
6106;DHT22;3083;51.508;7.966;2022-09-23T02:04:17;8.20;99.90
6106;DHT22;3083;51.508;7.966;2022-09-23T02:06:50;8.20;99.90
6106;DHT22;3083;51.508;7.966;2022-09-23T02:09:24;8.10;99.90
6106;DHT22;3083;51.508;7.966;2022-09-23T02:11:58;8.20;99.90
6106;DHT22;3083;51.508;7.966;2022-09-23T02:14:31;8.20;99.90
6106;DHT22;3083;51.508;7.966;2022-09-23T02:17:04;8.20;99.90
6106;DHT22;3083;51.508;7.966;2022-09-23T02:19:36;8.20;99.90
6106;DHT22;3083;51.508;7.966;2022-09-23T02:22:08;8.20;99.90
6106;DHT22;3083;51.508;7.966;2022-09-23T02:24:38;8.20;99.90
6106;DHT22;3083;51.508;7.966;2022-09-23T02:27:12;8.20;99.90
6106;DHT22;3083;51.508;7.966;2022-09-23T02:29:47;8.20;99.90
6106;DHT22;3083;51.508;7.966;2022-09-23T02:32:19;8.30;99.90
6106;DHT22;3083;51.508;7.966;2022-09-23T02:34:56;8.30;99.90
6106;DHT22;3083;51.508;7.966;2022-09-23T02:37:29;8.30;99.90
6106;DHT22;3083;51.508;7.966;2022-09-23T02:40:10;8.30;99.90
6106;DHT22;3083;51.508;7.966;2022-09-23T02:42:45;8.30;99.90
6106;DHT22;3083;51.508;7.966;2022-09-23T02:45:14;8.30;99.90
6106;DHT22;3083;51.508;7.966;2022-09-23T02:47:45;8.30;99.90
6106;DHT22;3083;51.508;7.966;2022-09-23T02:50:14;8.20;99.90
6106;DHT22;3083;51.508;7.966;2022-09-23T02:52:42;8.20;99.90
6106;DHT22;3083;51.508;7.966;2022-09-23T02:55:10;8.20;99.90
6106;DHT22;3083;51.508;7.966;2022-09-23T02:57:37;8.10;99.90
6106;DHT22;3083;51.508;7.966;2022-09-23T03:00:05;8.10;99.90
6106;DHT22;3083;51.508;7.966;2022-09-23T03:02:50;8.10;99.90
6106;DHT22;3083;51.508;7.966;2022-09-23T03:05:23;8.10;99.90
6106;DHT22;3083;51.508;7.966;2022-09-23T03:08:05;8.10;99.90
6106;DHT22;3083;51.508;7.966;2022-09-23T03:10:44;8.00;99.90
6106;DHT22;3083;51.508;7.966;2022-09-23T03:13:26;8.10;99.90
6106;DHT22;3083;51.508;7.966;2022-09-23T03:15:59;8.10;99.90
6106;DHT22;3083;51.508;7.966;2022-09-23T03:18:34;8.10;99.90
6106;DHT22;3083;51.508;7.966;2022-09-23T03:21:06;8.10;99.90
6106;DHT22;3083;51.508;7.966;2022-09-23T03:23:35;8.10;99.90
6106;DHT22;3083;51.508;7.966;2022-09-23T03:26:08;8.10;99.90
6106;DHT22;3083;51.508;7.966;2022-09-23T03:28:37;8.10;99.90
6106;DHT22;3083;51.508;7.966;2022-09-23T03:31:06;8.10;99.90
6106;DHT22;3083;51.508;7.966;2022-09-23T03:33:36;8.10;99.90
6106;DHT22;3083;51.508;7.966;2022-09-23T03:36:08;8.10;99.90
6106;DHT22;3083;51.508;7.966;2022-09-23T03:38:58;8.10;99.90
6106;DHT22;3083;51.508;7.966;2022-09-23T03:41:31;8.10;99.90
6106;DHT22;3083;51.508;7.966;2022-09-23T03:43:59;8.10;99.90
6106;DHT22;3083;51.508;7.966;2022-09-23T03:46:27;8.10;99.90
6106;DHT22;3083;51.508;7.966;2022-09-23T03:49:01;8.10;99.90
6106;DHT22;3083;51.508;7.966;2022-09-23T03:51:29;8.10;99.90
6106;DHT22;3083;51.508;7.966;2022-09-23T03:53:56;8.00;99.90
6106;DHT22;3083;51.508;7.966;2022-09-23T03:56:23;8.00;99.90
6106;DHT22;3083;51.508;7.966;2022-09-23T03:58:50;8.00;99.90
6106;DHT22;3083;51.508;7.966;2022-09-23T04:01:17;8.00;99.90
6106;DHT22;3083;51.508;7.966;2022-09-23T04:03:44;7.90;99.90
6106;DHT22;3083;51.508;7.966;2022-09-23T04:06:12;7.90;99.90
6106;DHT22;3083;51.508;7.966;2022-09-23T04:08:39;7.90;99.90
6106;DHT22;3083;51.508;7.966;2022-09-23T04:11:06;7.90;99.90
6106;DHT22;3083;51.508;7.966;2022-09-23T04:13:33;7.90;99.90
6106;DHT22;3083;51.508;7.966;2022-09-23T04:16:00;7.90;99.90
6106;DHT22;3083;51.508;7.966;2022-09-23T04:18:27;7.80;99.90
6106;DHT22;3083;51.508;7.966;2022-09-23T04:20:56;7.80;99.90
6106;DHT22;3083;51.508;7.966;2022-09-23T04:23:26;7.90;99.90
6106;DHT22;3083;51.508;7.966;2022-09-23T04:25:53;7.90;99.90
6106;DHT22;3083;51.508;7.966;2022-09-23T04:28:20;7.90;99.90
6106;DHT22;3083;51.508;7.966;2022-09-23T04:30:47;7.90;99.90
6106;DHT22;3083;51.508;7.966;2022-09-23T04:33:15;7.90;99.90
6106;DHT22;3083;51.508;7.966;2022-09-23T04:35:42;7.90;99.90
6106;DHT22;3083;51.508;7.966;2022-09-23T04:38:10;7.80;99.90
6106;DHT22;3083;51.508;7.966;2022-09-23T04:40:39;7.80;99.90
6106;DHT22;3083;51.508;7.966;2022-09-23T04:43:06;7.80;99.90
6106;DHT22;3083;51.508;7.966;2022-09-23T04:45:33;7.70;99.90
6106;DHT22;3083;51.508;7.966;2022-09-23T04:48:00;7.60;99.90
6106;DHT22;3083;51.508;7.966;2022-09-23T04:50:27;7.60;99.90
6106;DHT22;3083;51.508;7.966;2022-09-23T04:52:54;7.50;99.90
6106;DHT22;3083;51.508;7.966;2022-09-23T04:55:21;7.50;99.90
6106;DHT22;3083;51.508;7.966;2022-09-23T04:57:49;7.40;99.90
6106;DHT22;3083;51.508;7.966;2022-09-23T05:00:16;7.30;99.90
6106;DHT22;3083;51.508;7.966;2022-09-23T05:02:44;7.30;99.90
6106;DHT22;3083;51.508;7.966;2022-09-23T05:05:12;7.30;99.90
6106;DHT22;3083;51.508;7.966;2022-09-23T05:07:39;7.20;99.90
6106;DHT22;3083;51.508;7.966;2022-09-23T05:10:07;7.20;99.90
6106;DHT22;3083;51.508;7.966;2022-09-23T05:12:36;7.20;99.90
6106;DHT22;3083;51.508;7.966;2022-09-23T05:15:05;7.20;99.90
6106;DHT22;3083;51.508;7.966;2022-09-23T05:17:32;7.10;99.90
6106;DHT22;3083;51.508;7.966;2022-09-23T05:20:01;7.10;99.90
6106;DHT22;3083;51.508;7.966;2022-09-23T05:22:28;7.10;99.90
6106;DHT22;3083;51.508;7.966;2022-09-23T05:24:55;7.00;99.90
6106;DHT22;3083;51.508;7.966;2022-09-23T05:27:24;7.00;99.90
6106;DHT22;3083;51.508;7.966;2022-09-23T05:29:51;7.00;99.90
6106;DHT22;3083;51.508;7.966;2022-09-23T05:32:19;7.00;99.90
6106;DHT22;3083;51.508;7.966;2022-09-23T05:34:47;7.00;99.90
6106;DHT22;3083;51.508;7.966;2022-09-23T05:37:13;6.90;99.90
6106;DHT22;3083;51.508;7.966;2022-09-23T05:39:40;6.90;99.90
6106;DHT22;3083;51.508;7.966;2022-09-23T05:42:07;6.80;99.90
6106;DHT22;3083;51.508;7.966;2022-09-23T05:44:34;6.80;99.90
6106;DHT22;3083;51.508;7.966;2022-09-23T05:47:01;6.80;99.90
6106;DHT22;3083;51.508;7.966;2022-09-23T05:49:30;6.90;99.90
6106;DHT22;3083;51.508;7.966;2022-09-23T05:51:56;6.90;99.90
6106;DHT22;3083;51.508;7.966;2022-09-23T05:54:24;6.90;99.90
6106;DHT22;3083;51.508;7.966;2022-09-23T05:56:50;7.00;99.90
6106;DHT22;3083;51.508;7.966;2022-09-23T05:59:17;7.10;99.90
6106;DHT22;3083;51.508;7.966;2022-09-23T06:01:44;7.20;99.90
6106;DHT22;3083;51.508;7.966;2022-09-23T06:04:12;7.30;99.90
6106;DHT22;3083;51.508;7.966;2022-09-23T06:06:41;7.40;99.90
6106;DHT22;3083;51.508;7.966;2022-09-23T06:09:11;7.50;99.90
6106;DHT22;3083;51.508;7.966;2022-09-23T06:11:40;7.70;99.90
6106;DHT22;3083;51.508;7.966;2022-09-23T06:14:10;7.90;99.90
6106;DHT22;3083;51.508;7.966;2022-09-23T06:16:37;8.00;99.90
6106;DHT22;3083;51.508;7.966;2022-09-23T06:19:04;8.20;99.90
6106;DHT22;3083;51.508;7.966;2022-09-23T06:21:32;8.30;99.90
6106;DHT22;3083;51.508;7.966;2022-09-23T06:24:01;8.60;99.90
6106;DHT22;3083;51.508;7.966;2022-09-23T06:26:28;8.90;99.90
6106;DHT22;3083;51.508;7.966;2022-09-23T06:28:57;9.30;99.90
6106;DHT22;3083;51.508;7.966;2022-09-23T06:31:23;9.60;99.90
6106;DHT22;3083;51.508;7.966;2022-09-23T06:33:50;10.00;99.90
6106;DHT22;3083;51.508;7.966;2022-09-23T06:36:18;10.40;99.90
6106;DHT22;3083;51.508;7.966;2022-09-23T06:38:45;10.80;99.90
6106;DHT22;3083;51.508;7.966;2022-09-23T06:41:15;11.20;99.90
6106;DHT22;3083;51.508;7.966;2022-09-23T06:43:42;11.60;99.90
6106;DHT22;3083;51.508;7.966;2022-09-23T06:46:12;11.90;99.90
6106;DHT22;3083;51.508;7.966;2022-09-23T06:48:40;12.20;99.90
6106;DHT22;3083;51.508;7.966;2022-09-23T06:51:10;12.50;99.90
6106;DHT22;3083;51.508;7.966;2022-09-23T06:53:44;12.70;99.90
6106;DHT22;3083;51.508;7.966;2022-09-23T06:56:11;13.00;99.90
6106;DHT22;3083;51.508;7.966;2022-09-23T06:58:40;13.00;99.90
6106;DHT22;3083;51.508;7.966;2022-09-23T07:01:10;13.10;99.90
6106;DHT22;3083;51.508;7.966;2022-09-23T07:03:38;13.20;99.90
6106;DHT22;3083;51.508;7.966;2022-09-23T07:06:05;13.30;99.90
6106;DHT22;3083;51.508;7.966;2022-09-23T07:08:33;13.30;99.90
6106;DHT22;3083;51.508;7.966;2022-09-23T07:11:03;13.30;99.90
6106;DHT22;3083;51.508;7.966;2022-09-23T07:13:30;13.40;99.90
6106;DHT22;3083;51.508;7.966;2022-09-23T07:16:00;13.50;99.90
6106;DHT22;3083;51.508;7.966;2022-09-23T07:18:30;13.70;99.90
6106;DHT22;3083;51.508;7.966;2022-09-23T07:21:04;13.90;99.90
6106;DHT22;3083;51.508;7.966;2022-09-23T07:23:32;14.00;99.90
6106;DHT22;3083;51.508;7.966;2022-09-23T07:25:59;14.10;99.90
6106;DHT22;3083;51.508;7.966;2022-09-23T07:28:26;14.20;99.90
6106;DHT22;3083;51.508;7.966;2022-09-23T07:30:54;14.40;99.90
6106;DHT22;3083;51.508;7.966;2022-09-23T07:33:23;14.60;99.90
6106;DHT22;3083;51.508;7.966;2022-09-23T07:35:50;14.90;99.90
6106;DHT22;3083;51.508;7.966;2022-09-23T07:38:17;15.30;99.90
6106;DHT22;3083;51.508;7.966;2022-09-23T07:40:43;15.60;99.90
6106;DHT22;3083;51.508;7.966;2022-09-23T07:43:11;16.00;99.90
6106;DHT22;3083;51.508;7.966;2022-09-23T07:45:38;16.20;99.90
6106;DHT22;3083;51.508;7.966;2022-09-23T07:48:08;16.40;99.90
6106;DHT22;3083;51.508;7.966;2022-09-23T07:50:39;16.70;99.90
6106;DHT22;3083;51.508;7.966;2022-09-23T07:53:06;16.90;99.90
6106;DHT22;3083;51.508;7.966;2022-09-23T07:55:33;17.10;99.90
6106;DHT22;3083;51.508;7.966;2022-09-23T07:58:00;17.20;99.90
6106;DHT22;3083;51.508;7.966;2022-09-23T08:00:27;17.40;99.90
6106;DHT22;3083;51.508;7.966;2022-09-23T08:02:54;17.60;99.90
6106;DHT22;3083;51.508;7.966;2022-09-23T08:05:21;17.80;99.90
6106;DHT22;3083;51.508;7.966;2022-09-23T08:07:49;18.00;99.90
6106;DHT22;3083;51.508;7.966;2022-09-23T08:10:17;18.10;99.90
6106;DHT22;3083;51.508;7.966;2022-09-23T08:12:45;18.10;99.90
6106;DHT22;3083;51.508;7.966;2022-09-23T08:15:13;18.10;99.90
6106;DHT22;3083;51.508;7.966;2022-09-23T08:17:41;18.10;99.90
6106;DHT22;3083;51.508;7.966;2022-09-23T08:20:08;18.10;99.90
6106;DHT22;3083;51.508;7.966;2022-09-23T08:22:57;18.00;99.90
6106;DHT22;3083;51.508;7.966;2022-09-23T08:25:24;17.90;99.90
6106;DHT22;3083;51.508;7.966;2022-09-23T08:27:51;17.80;99.90
6106;DHT22;3083;51.508;7.966;2022-09-23T08:30:18;17.80;99.90
6106;DHT22;3083;51.508;7.966;2022-09-23T08:32:49;17.90;99.90
6106;DHT22;3083;51.508;7.966;2022-09-23T08:35:16;18.00;99.90
6106;DHT22;3083;51.508;7.966;2022-09-23T08:37:45;18.20;99.90
6106;DHT22;3083;51.508;7.966;2022-09-23T08:40:13;18.30;99.90
6106;DHT22;3083;51.508;7.966;2022-09-23T08:42:42;18.50;99.90
6106;DHT22;3083;51.508;7.966;2022-09-23T08:45:16;18.60;99.90
6106;DHT22;3083;51.508;7.966;2022-09-23T08:47:48;18.60;99.90
6106;DHT22;3083;51.508;7.966;2022-09-23T08:50:18;18.60;99.90
6106;DHT22;3083;51.508;7.966;2022-09-23T08:52:48;18.40;99.90
6106;DHT22;3083;51.508;7.966;2022-09-23T08:55:18;18.30;99.90
6106;DHT22;3083;51.508;7.966;2022-09-23T08:58:02;18.30;99.90
6106;DHT22;3083;51.508;7.966;2022-09-23T09:00:36;18.20;99.90
6106;DHT22;3083;51.508;7.966;2022-09-23T09:03:18;18.20;99.90
6106;DHT22;3083;51.508;7.966;2022-09-23T09:05:46;18.20;99.90
6106;DHT22;3083;51.508;7.966;2022-09-23T09:08:13;18.30;99.90
6106;DHT22;3083;51.508;7.966;2022-09-23T09:10:43;18.30;99.90
6106;DHT22;3083;51.508;7.966;2022-09-23T09:13:22;18.30;99.90
6106;DHT22;3083;51.508;7.966;2022-09-23T09:16:13;18.30;99.90
6106;DHT22;3083;51.508;7.966;2022-09-23T09:18:49;18.30;99.90
6106;DHT22;3083;51.508;7.966;2022-09-23T09:21:16;18.40;99.90
6106;DHT22;3083;51.508;7.966;2022-09-23T09:23:49;18.50;99.90
6106;DHT22;3083;51.508;7.966;2022-09-23T09:26:20;18.50;99.90
6106;DHT22;3083;51.508;7.966;2022-09-23T09:28:50;18.50;99.90
6106;DHT22;3083;51.508;7.966;2022-09-23T09:31:23;18.60;99.90
6106;DHT22;3083;51.508;7.966;2022-09-23T09:33:55;18.60;99.90
6106;DHT22;3083;51.508;7.966;2022-09-23T09:36:33;18.60;99.90
6106;DHT22;3083;51.508;7.966;2022-09-23T09:39:01;18.60;99.90
6106;DHT22;3083;51.508;7.966;2022-09-23T09:41:29;18.70;99.90
6106;DHT22;3083;51.508;7.966;2022-09-23T09:43:58;18.80;99.90
6106;DHT22;3083;51.508;7.966;2022-09-23T09:46:45;18.90;99.90
6106;DHT22;3083;51.508;7.966;2022-09-23T09:49:19;19.00;99.90
6106;DHT22;3083;51.508;7.966;2022-09-23T09:51:50;19.00;99.90
6106;DHT22;3083;51.508;7.966;2022-09-23T09:54:36;19.10;99.90
6106;DHT22;3083;51.508;7.966;2022-09-23T09:57:14;19.20;99.90
6106;DHT22;3083;51.508;7.966;2022-09-23T09:59:43;19.20;99.90
6106;DHT22;3083;51.508;7.966;2022-09-23T10:02:21;19.30;99.90
6106;DHT22;3083;51.508;7.966;2022-09-23T10:04:58;19.20;99.90
6106;DHT22;3083;51.508;7.966;2022-09-23T10:07:27;19.20;99.90
6106;DHT22;3083;51.508;7.966;2022-09-23T10:09:54;19.20;99.90
6106;DHT22;3083;51.508;7.966;2022-09-23T10:12:24;19.30;99.90
6106;DHT22;3083;51.508;7.966;2022-09-23T10:14:55;19.30;99.90
6106;DHT22;3083;51.508;7.966;2022-09-23T10:17:23;19.40;99.90
6106;DHT22;3083;51.508;7.966;2022-09-23T10:19:55;19.40;99.90
6106;DHT22;3083;51.508;7.966;2022-09-23T10:22:26;19.50;99.90
6106;DHT22;3083;51.508;7.966;2022-09-23T10:24:57;19.50;99.90
6106;DHT22;3083;51.508;7.966;2022-09-23T10:27:30;19.50;99.90
6106;DHT22;3083;51.508;7.966;2022-09-23T10:29:58;19.60;99.90
6106;DHT22;3083;51.508;7.966;2022-09-23T10:32:29;19.60;99.90
6106;DHT22;3083;51.508;7.966;2022-09-23T10:34:58;19.70;99.90
6106;DHT22;3083;51.508;7.966;2022-09-23T10:37:34;19.70;99.90
6106;DHT22;3083;51.508;7.966;2022-09-23T10:40:12;19.70;99.90
6106;DHT22;3083;51.508;7.966;2022-09-23T10:43:24;19.60;99.90
6106;DHT22;3083;51.508;7.966;2022-09-23T10:46:17;19.60;99.90
6106;DHT22;3083;51.508;7.966;2022-09-23T10:49:13;19.60;99.90
6106;DHT22;3083;51.508;7.966;2022-09-23T10:51:48;19.60;99.90
6106;DHT22;3083;51.508;7.966;2022-09-23T10:54:22;19.70;99.90
6106;DHT22;3083;51.508;7.966;2022-09-23T10:56:56;19.70;99.90
6106;DHT22;3083;51.508;7.966;2022-09-23T10:59:42;19.70;99.90
6106;DHT22;3083;51.508;7.966;2022-09-23T11:02:26;19.70;99.90
6106;DHT22;3083;51.508;7.966;2022-09-23T11:05:13;19.70;99.90
6106;DHT22;3083;51.508;7.966;2022-09-23T11:07:47;19.70;99.90
6106;DHT22;3083;51.508;7.966;2022-09-23T11:13:37;19.80;99.90
6106;DHT22;3083;51.508;7.966;2022-09-23T11:16:15;19.80;99.90
6106;DHT22;3083;51.508;7.966;2022-09-23T11:19:03;19.80;99.90
6106;DHT22;3083;51.508;7.966;2022-09-23T11:21:43;19.90;99.90
6106;DHT22;3083;51.508;7.966;2022-09-23T11:24:37;20.00;99.90
6106;DHT22;3083;51.508;7.966;2022-09-23T11:27:25;20.00;99.90
6106;DHT22;3083;51.508;7.966;2022-09-23T11:30:06;20.00;99.90
6106;DHT22;3083;51.508;7.966;2022-09-23T11:35:43;20.10;99.90
6106;DHT22;3083;51.508;7.966;2022-09-23T11:38:16;20.20;99.90
6106;DHT22;3083;51.508;7.966;2022-09-23T11:40:53;20.30;99.90
6106;DHT22;3083;51.508;7.966;2022-09-23T11:43:23;20.30;99.90
6106;DHT22;3083;51.508;7.966;2022-09-23T11:45:56;20.30;99.90
6106;DHT22;3083;51.508;7.966;2022-09-23T11:48:29;20.30;99.90
6106;DHT22;3083;51.508;7.966;2022-09-23T11:51:02;20.40;99.90
6106;DHT22;3083;51.508;7.966;2022-09-23T11:53:36;20.50;99.90
6106;DHT22;3083;51.508;7.966;2022-09-23T11:56:12;20.60;99.90
6106;DHT22;3083;51.508;7.966;2022-09-23T11:58:46;20.70;99.90
6106;DHT22;3083;51.508;7.966;2022-09-23T12:01:18;20.70;99.90
6106;DHT22;3083;51.508;7.966;2022-09-23T12:03:50;20.70;99.90
6106;DHT22;3083;51.508;7.966;2022-09-23T12:06:23;20.80;99.90
6106;DHT22;3083;51.508;7.966;2022-09-23T12:08:55;20.80;99.90
6106;DHT22;3083;51.508;7.966;2022-09-23T12:11:27;20.90;99.90
6106;DHT22;3083;51.508;7.966;2022-09-23T12:14:03;20.90;99.90
6106;DHT22;3083;51.508;7.966;2022-09-23T12:16:50;21.00;99.90
6106;DHT22;3083;51.508;7.966;2022-09-23T12:19:38;20.90;99.90
6106;DHT22;3083;51.508;7.966;2022-09-23T12:22:22;20.90;99.90
6106;DHT22;3083;51.508;7.966;2022-09-23T12:24:56;21.00;99.90
6106;DHT22;3083;51.508;7.966;2022-09-23T12:27:31;21.20;99.90
6106;DHT22;3083;51.508;7.966;2022-09-23T12:30:01;21.20;99.90
6106;DHT22;3083;51.508;7.966;2022-09-23T12:32:29;21.40;99.90
6106;DHT22;3083;51.508;7.966;2022-09-23T12:34:57;21.60;99.90
6106;DHT22;3083;51.508;7.966;2022-09-23T12:37:30;21.70;99.90
6106;DHT22;3083;51.508;7.966;2022-09-23T12:40:01;21.80;99.90
6106;DHT22;3083;51.508;7.966;2022-09-23T12:42:31;21.80;99.90
6106;DHT22;3083;51.508;7.966;2022-09-23T12:47:59;21.80;99.90
6106;DHT22;3083;51.508;7.966;2022-09-23T12:50:49;21.60;99.90
6106;DHT22;3083;51.508;7.966;2022-09-23T12:56:21;21.60;99.90
6106;DHT22;3083;51.508;7.966;2022-09-23T12:59:09;21.50;99.90
6106;DHT22;3083;51.508;7.966;2022-09-23T13:01:38;21.70;99.90
6106;DHT22;3083;51.508;7.966;2022-09-23T13:04:05;21.70;99.90
6106;DHT22;3083;51.508;7.966;2022-09-23T13:07:09;21.70;99.90
6106;DHT22;3083;51.508;7.966;2022-09-23T13:09:41;21.60;99.90
6106;DHT22;3083;51.508;7.966;2022-09-23T13:12:17;21.50;99.90
6106;DHT22;3083;51.508;7.966;2022-09-23T13:14:47;21.50;99.90
6106;DHT22;3083;51.508;7.966;2022-09-23T13:17:23;21.40;99.90
6106;DHT22;3083;51.508;7.966;2022-09-23T13:19:59;21.30;99.90
6106;DHT22;3083;51.508;7.966;2022-09-23T13:25:27;21.10;99.90
6106;DHT22;3083;51.508;7.966;2022-09-23T13:28:00;21.10;99.90
6106;DHT22;3083;51.508;7.966;2022-09-23T13:30:28;21.10;99.90
6106;DHT22;3083;51.508;7.966;2022-09-23T13:33:04;21.00;99.90
6106;DHT22;3083;51.508;7.966;2022-09-23T13:35:34;20.90;99.90
6106;DHT22;3083;51.508;7.966;2022-09-23T13:38:09;20.90;99.90
6106;DHT22;3083;51.508;7.966;2022-09-23T13:40:37;20.80;99.90
6106;DHT22;3083;51.508;7.966;2022-09-23T13:43:11;20.70;99.90
6106;DHT22;3083;51.508;7.966;2022-09-23T13:45:40;20.50;99.90
6106;DHT22;3083;51.508;7.966;2022-09-23T13:48:11;20.40;99.90
6106;DHT22;3083;51.508;7.966;2022-09-23T13:50:41;20.40;99.90
6106;DHT22;3083;51.508;7.966;2022-09-23T13:53:10;20.30;99.90
6106;DHT22;3083;51.508;7.966;2022-09-23T13:55:39;20.30;99.90
6106;DHT22;3083;51.508;7.966;2022-09-23T13:58:15;20.30;99.90
6106;DHT22;3083;51.508;7.966;2022-09-23T14:00:44;20.30;99.90
6106;DHT22;3083;51.508;7.966;2022-09-23T14:03:25;20.20;99.90
6106;DHT22;3083;51.508;7.966;2022-09-23T14:05:54;20.20;99.90
6106;DHT22;3083;51.508;7.966;2022-09-23T14:08:21;20.10;99.90
6106;DHT22;3083;51.508;7.966;2022-09-23T14:10:49;20.10;99.90
6106;DHT22;3083;51.508;7.966;2022-09-23T14:13:20;20.00;99.90
6106;DHT22;3083;51.508;7.966;2022-09-23T14:15:49;20.00;99.90
6106;DHT22;3083;51.508;7.966;2022-09-23T14:18:22;19.90;99.90
6106;DHT22;3083;51.508;7.966;2022-09-23T14:20:52;19.80;99.90
6106;DHT22;3083;51.508;7.966;2022-09-23T14:23:19;19.70;99.90
6106;DHT22;3083;51.508;7.966;2022-09-23T14:25:46;19.70;99.90
6106;DHT22;3083;51.508;7.966;2022-09-23T14:28:15;19.60;99.90
6106;DHT22;3083;51.508;7.966;2022-09-23T14:30:44;19.50;99.90
6106;DHT22;3083;51.508;7.966;2022-09-23T14:33:15;19.40;99.90
6106;DHT22;3083;51.508;7.966;2022-09-23T14:35:46;19.30;99.90
6106;DHT22;3083;51.508;7.966;2022-09-23T14:38:20;19.30;99.90
6106;DHT22;3083;51.508;7.966;2022-09-23T14:41:14;19.20;99.90
6106;DHT22;3083;51.508;7.966;2022-09-23T14:43:50;19.10;99.90
6106;DHT22;3083;51.508;7.966;2022-09-23T14:46:20;19.10;99.90
6106;DHT22;3083;51.508;7.966;2022-09-23T14:48:56;19.00;99.90
6106;DHT22;3083;51.508;7.966;2022-09-23T14:51:33;19.00;99.90
6106;DHT22;3083;51.508;7.966;2022-09-23T14:54:31;19.00;99.90
6106;DHT22;3083;51.508;7.966;2022-09-23T14:57:01;18.80;99.90
6106;DHT22;3083;51.508;7.966;2022-09-23T14:59:32;18.80;99.90
6106;DHT22;3083;51.508;7.966;2022-09-23T15:02:22;18.70;99.90
6106;DHT22;3083;51.508;7.966;2022-09-23T15:04:49;18.70;99.90
6106;DHT22;3083;51.508;7.966;2022-09-23T15:07:17;18.60;99.90
6106;DHT22;3083;51.508;7.966;2022-09-23T15:09:46;18.50;99.90
6106;DHT22;3083;51.508;7.966;2022-09-23T15:12:14;18.50;99.90
6106;DHT22;3083;51.508;7.966;2022-09-23T15:14:47;18.30;99.90
6106;DHT22;3083;51.508;7.966;2022-09-23T15:17:26;18.30;99.90
6106;DHT22;3083;51.508;7.966;2022-09-23T15:19:59;18.30;99.90
6106;DHT22;3083;51.508;7.966;2022-09-23T15:22:27;18.20;99.90
6106;DHT22;3083;51.508;7.966;2022-09-23T15:25:09;18.20;99.90
6106;DHT22;3083;51.508;7.966;2022-09-23T15:27:36;18.10;99.90
6106;DHT22;3083;51.508;7.966;2022-09-23T15:30:15;18.10;99.90
6106;DHT22;3083;51.508;7.966;2022-09-23T15:32:44;18.10;99.90
6106;DHT22;3083;51.508;7.966;2022-09-23T15:35:12;18.00;99.90
6106;DHT22;3083;51.508;7.966;2022-09-23T15:37:41;18.00;99.90
6106;DHT22;3083;51.508;7.966;2022-09-23T15:40:18;18.00;99.90
6106;DHT22;3083;51.508;7.966;2022-09-23T15:42:45;17.90;99.90
6106;DHT22;3083;51.508;7.966;2022-09-23T15:45:17;17.90;99.90
6106;DHT22;3083;51.508;7.966;2022-09-23T15:47:47;17.80;99.90
6106;DHT22;3083;51.508;7.966;2022-09-23T15:50:15;17.80;99.90
6106;DHT22;3083;51.508;7.966;2022-09-23T15:52:42;17.70;99.90
6106;DHT22;3083;51.508;7.966;2022-09-23T15:55:16;17.70;99.90
6106;DHT22;3083;51.508;7.966;2022-09-23T15:57:45;17.60;99.90
6106;DHT22;3083;51.508;7.966;2022-09-23T16:00:13;17.60;99.90
6106;DHT22;3083;51.508;7.966;2022-09-23T16:02:43;17.60;99.90
6106;DHT22;3083;51.508;7.966;2022-09-23T16:05:17;17.50;99.90
6106;DHT22;3083;51.508;7.966;2022-09-23T16:07:45;17.40;99.90
6106;DHT22;3083;51.508;7.966;2022-09-23T16:10:13;17.40;99.90
6106;DHT22;3083;51.508;7.966;2022-09-23T16:12:40;17.40;99.90
6106;DHT22;3083;51.508;7.966;2022-09-23T16:15:10;17.30;99.90
6106;DHT22;3083;51.508;7.966;2022-09-23T16:17:38;17.20;99.90
6106;DHT22;3083;51.508;7.966;2022-09-23T16:20:07;17.20;99.90
6106;DHT22;3083;51.508;7.966;2022-09-23T16:22:35;17.20;99.90
6106;DHT22;3083;51.508;7.966;2022-09-23T16:25:03;17.10;99.90
6106;DHT22;3083;51.508;7.966;2022-09-23T16:27:30;17.00;99.90
6106;DHT22;3083;51.508;7.966;2022-09-23T16:29:58;16.90;99.90
6106;DHT22;3083;51.508;7.966;2022-09-23T16:32:25;16.90;99.90
6106;DHT22;3083;51.508;7.966;2022-09-23T16:34:52;16.80;99.90
6106;DHT22;3083;51.508;7.966;2022-09-23T16:37:21;16.80;99.90
6106;DHT22;3083;51.508;7.966;2022-09-23T16:39:49;16.70;99.90
6106;DHT22;3083;51.508;7.966;2022-09-23T16:42:16;16.70;99.90
6106;DHT22;3083;51.508;7.966;2022-09-23T16:44:43;16.60;99.90
6106;DHT22;3083;51.508;7.966;2022-09-23T16:47:10;16.60;99.90
6106;DHT22;3083;51.508;7.966;2022-09-23T16:49:37;16.50;99.90
6106;DHT22;3083;51.508;7.966;2022-09-23T16:52:03;16.40;99.90
6106;DHT22;3083;51.508;7.966;2022-09-23T16:54:30;16.30;99.90
6106;DHT22;3083;51.508;7.966;2022-09-23T16:56:59;16.30;99.90